Time;durP1;ratioP1;P1;durP2;ratioP2;P2;SDS_P1;SDS_P2;PMS_P1;PMS_P2;Temp;Humidity;BMP_temperature;BMP_pressure;BME280_temperature;BME280_humidity;BME280_pressure;Samples;Min_cycle;Max_cycle;Signal;HPM_P1;HPM_P2
2023/02/28 05:09:42;;;;;;;12.20;6.65;;;3.80;99.90;;;;;;5045170;22;27149290;-82
2023/02/28 05:12:33;;;;;;;16.08;6.90;;;3.40;99.90;;;;;;6184848;23;20101;-83
2023/02/28 05:15:43;;;;;;;13.88;7.18;;;3.80;99.90;;;;;;6184067;23;20019;-82
2023/02/28 05:18:38;;;;;;;15.43;7.13;;;3.40;99.90;;;;;;6185213;23;20048;-83
2023/02/28 05:21:38;;;;;;;12.80;7.70;;;3.20;99.90;;;;;;6161490;23;20297;-83
2023/02/28 05:24:50;;;;;;;12.77;8.20;;;3.80;99.90;;;;;;6184548;23;20020;-83
2023/02/28 05:28:03;;;;;;;13.97;8.07;;;3.20;99.90;;;;;;6070245;23;20462;-82
2023/02/28 05:31:11;;;;;;;12.23;8.00;;;3.80;99.90;;;;;;6089889;23;20045;-83
2023/02/28 05:33:58;;;;;;;14.50;8.00;;;3.40;99.90;;;;;;6066646;23;20019;-83
2023/02/28 05:36:36;;;;;;;17.20;7.93;;;3.40;99.90;;;;;;6041297;23;20019;-82
2023/02/28 05:39:46;;;;;;;14.68;8.43;;;3.20;99.90;;;;;;6066291;23;20026;-83
2023/02/28 05:42:17;;;;;;;15.82;8.60;;;3.20;99.90;;;;;;6065467;23;20050;-83
2023/02/28 05:44:54;;;;;;;15.27;9.18;;;3.10;99.90;;;;;;6067191;23;20109;-83
2023/02/28 05:47:51;;;;;;;17.63;9.90;;;3.70;99.90;;;;;;6138132;23;20024;-82
2023/02/28 05:51:18;;;;;;;16.55;9.07;;;3.50;99.90;;;;;;6131615;23;20017;-83
2023/02/28 05:54:13;;;;;;;14.20;9.55;;;3.20;99.90;;;;;;6051732;23;20023;-82
2023/02/28 06:00:47;;;;;;;17.73;9.65;;;3.50;99.90;;;;;;5896056;24;20085;-83
2023/02/28 06:03:44;;;;;;;16.38;9.68;;;3.10;99.90;;;;;;5878657;24;20017;-83
2023/02/28 06:10:08;;;;;;;17.02;9.70;;;3.40;99.90;;;;;;5921565;24;20025;-83
2023/02/28 06:13:10;;;;;;;14.35;9.35;;;3.30;99.90;;;;;;5818078;24;20129;-83
2023/02/28 06:19:52;;;;;;;13.43;9.27;;;3.10;99.90;;;;;;5841059;24;20101;-83
2023/02/28 06:22:37;;;;;;;17.92;8.98;;;3.10;99.90;;;;;;5792830;24;20150;-83
2023/02/28 06:25:32;;;;;;;17.42;9.88;;;3.20;99.90;;;;;;5770505;24;20076;-83
2023/02/28 06:28:23;;;;;;;13.88;8.88;;;3.00;99.90;;;;;;5787774;24;20085;-83
2023/02/28 06:30:49;;;;;;;12.52;8.60;;;3.30;99.90;;;;;;5809030;24;20034;-85
2023/02/28 06:33:25;;;;;;;11.85;8.40;;;3.10;99.90;;;;;;5819512;24;20072;-84
2023/02/28 06:36:01;;;;;;;13.63;8.90;;;3.10;99.90;;;;;;5857151;24;20021;-83
2023/02/28 06:53:16;;;;;;;17.70;10.77;;;2.90;99.90;;;;;;5969011;24;20044;-81
2023/02/28 06:56:14;;;;;;;18.70;11.27;;;3.00;99.90;;;;;;5926541;24;20014;-81
2023/02/28 07:05:44;;;;;;;19.48;12.15;;;2.80;99.90;;;;;;6006721;23;20058;-85
2023/02/28 07:08:13;;;;;;;20.48;12.23;;;3.40;99.90;;;;;;5977056;24;20457;-82
2023/02/28 07:10:53;;;;;;;19.25;11.45;;;3.30;99.90;;;;;;5973171;23;20126;-82
2023/02/28 07:13:20;;;;;;;19.77;11.98;;;2.70;99.90;;;;;;5974481;23;20047;-81
2023/02/28 07:19:42;;;;;;;23.35;12.77;;;3.30;99.90;;;;;;5980001;23;20012;-83
2023/02/28 07:26:17;;;;;;;22.75;12.88;;;2.70;99.90;;;;;;5895249;24;20013;-82
2023/02/28 07:53:04;;;;;;;18.65;11.48;;;3.30;99.90;;;;;;6213791;23;20039;-82
2023/02/28 07:55:30;;;;;;;21.15;11.32;;;2.90;99.90;;;;;;6162698;23;20433;-82
2023/02/28 07:58:00;;;;;;;18.58;11.90;;;3.20;99.90;;;;;;6163842;23;20409;-82
2023/02/28 08:00:35;;;;;;;17.85;11.70;;;3.40;99.90;;;;;;6163783;23;20416;-81
2023/02/28 08:03:00;;;;;;;;;;;3.00;99.90;;;;;;6163768;23;20016;-85
2023/02/28 08:21:39;;;;;;;16.02;10.35;;;3.20;99.90;;;;;;6283560;22;20011;-81
2023/02/28 08:25:03;;;;;;;17.00;11.27;;;3.10;99.90;;;;;;6154829;23;20169;-82
2023/02/28 08:27:39;;;;;;;18.27;12.13;;;3.30;99.90;;;;;;5976617;23;20099;-83
2023/02/28 08:30:25;;;;;;;19.33;11.98;;;3.40;99.90;;;;;;5962043;24;20051;-82
2023/02/28 08:33:48;;;;;;;17.73;11.10;;;3.70;99.90;;;;;;5982710;24;20024;-82
2023/02/28 08:36:17;;;;;;;18.10;12.02;;;3.60;99.90;;;;;;5796485;24;20027;-82
2023/02/28 08:39:19;;;;;;;19.90;12.77;;;4.10;99.90;;;;;;5793553;24;20019;-82
2023/02/28 08:42:20;;;;;;;20.02;12.35;;;3.90;99.90;;;;;;5815233;24;20059;-81
2023/02/28 08:45:22;;;;;;;19.60;11.80;;;3.70;99.90;;;;;;5789911;24;20015;-83
2023/02/28 08:48:06;;;;;;;18.80;11.73;;;3.90;99.90;;;;;;5790561;24;20091;-82
2023/02/28 08:50:52;;;;;;;16.13;11.18;;;4.00;99.90;;;;;;5790601;24;20075;-84
2023/02/28 08:53:24;;;;;;;15.15;11.52;;;4.30;99.90;;;;;;5772051;24;20217;-84
2023/02/28 08:56:04;;;;;;;20.27;12.13;;;4.50;99.90;;;;;;5771466;24;20011;-82
2023/02/28 08:58:36;;;;;;;16.00;11.07;;;4.70;99.90;;;;;;5798173;24;20419;-84
2023/02/28 09:01:48;;;;;;;;;;;;;;;;;;;;;
2023/02/28 09:04:45;;;;;;;20.17;11.57;;;4.70;99.90;;;;;;5955072;24;20517;-84
2023/02/28 09:07:24;;;;;;;18.73;10.90;;;4.80;99.90;;;;;;5918064;24;20017;-84
2023/02/28 09:10:59;;;;;;;18.88;11.57;;;4.50;99.90;;;;;;5925900;24;20028;-85
2023/02/28 09:13:48;;;;;;;16.30;10.20;;;4.60;99.90;;;;;;6187591;22;20020;-84
2023/02/28 09:16:27;;;;;;;12.95;9.90;;;4.80;99.90;;;;;;6221787;22;20055;-84
2023/02/28 09:19:24;;;;;;;14.27;9.93;;;4.60;99.90;;;;;;6222388;22;20023;-84
2023/02/28 09:22:04;;;;;;;16.27;10.70;;;4.40;99.90;;;;;;6213941;22;20020;-85
2023/02/28 09:24:59;;;;;;;15.88;11.15;;;4.50;99.90;;;;;;6215848;23;20091;-85
2023/02/28 09:27:33;;;;;;;13.65;9.80;;;4.70;99.90;;;;;;6189682;23;20393;-85
2023/02/28 09:30:57;;;;;;;14.65;10.13;;;4.70;99.90;;;;;;6189787;23;20460;-84
2023/02/28 09:33:37;;;;;;;16.70;9.75;;;5.10;99.90;;;;;;6215191;23;20039;-84
2023/02/28 09:36:20;;;;;;;14.93;10.25;;;5.20;99.90;;;;;;6190082;23;20021;-84
2023/02/28 09:39:09;;;;;;;14.77;10.10;;;5.30;99.90;;;;;;6151200;23;20080;-83
2023/02/28 09:41:55;;;;;;;15.15;9.95;;;5.20;99.90;;;;;;6146667;23;20421;-83
2023/02/28 09:44:53;;;;;;;17.38;10.38;;;5.30;99.90;;;;;;6125517;23;20021;-83
2023/02/28 09:47:49;;;;;;;14.93;10.73;;;5.00;99.90;;;;;;6180912;23;20057;-84
2023/02/28 09:50:32;;;;;;;19.38;11.15;;;5.00;99.90;;;;;;6131381;23;20084;-84
2023/02/28 09:56:34;;;;;;;19.77;10.60;;;4.60;99.90;;;;;;6093719;23;20455;-84
2023/02/28 09:59:21;;;;;;;;;;;;;;;;;;;;;
2023/02/28 10:02:23;;;;;;;12.25;9.48;;;4.80;99.90;;;;;;6096054;23;20073;-84
2023/02/28 10:05:11;;;;;;;15.20;10.13;;;4.70;99.90;;;;;;6095816;23;20033;-84
2023/02/28 10:07:40;;;;;;;14.63;9.48;;;4.80;99.90;;;;;;6071991;23;20248;-84
2023/02/28 10:10:45;;;;;;;22.90;10.02;;;4.80;99.90;;;;;;6133781;23;20068;-83
2023/02/28 10:13:27;;;;;;;14.35;9.80;;;5.10;99.90;;;;;;6098432;23;20029;-83
2023/02/28 10:16:10;;;;;;;14.63;10.27;;;4.80;99.90;;;;;;6124744;23;20080;-83
2023/02/28 10:19:34;;;;;;;14.45;10.13;;;5.20;99.90;;;;;;6127840;23;20045;-84
2023/02/28 10:22:15;;;;;;;15.02;9.57;;;5.20;99.90;;;;;;5981451;23;20007;-83
2023/02/28 10:24:51;;;;;;;14.63;9.40;;;5.10;99.90;;;;;;5958768;23;20016;-84
2023/02/28 10:27:21;;;;;;;13.13;8.90;;;5.00;99.90;;;;;;5938859;24;20008;-83
2023/02/28 10:30:00;;;;;;;13.77;8.95;;;5.10;99.90;;;;;;5931706;24;20019;-84
2023/02/28 10:32:42;;;;;;;13.68;8.10;;;5.20;99.90;;;;;;5948937;23;20011;-84
2023/02/28 10:35:25;;;;;;;16.20;8.98;;;5.00;99.90;;;;;;6010866;23;20015;-84
2023/02/28 10:38:14;;;;;;;15.00;8.43;;;5.00;99.90;;;;;;6013309;23;20106;-84
2023/02/28 10:41:29;;;;;;;12.95;8.63;;;5.30;99.90;;;;;;6017041;23;20023;-84
2023/02/28 10:44:25;;;;;;;11.77;6.75;;;5.30;99.90;;;;;;6016607;23;20105;-83
2023/02/28 10:47:15;;;;;;;11.93;8.15;;;5.20;99.90;;;;;;6038507;23;20015;-83
2023/02/28 10:49:54;;;;;;;13.77;7.68;;;5.30;99.90;;;;;;6047113;23;20019;-83
2023/02/28 10:52:50;;;;;;;10.90;6.65;;;5.40;99.90;;;;;;6070550;23;20593;-84
2023/02/28 10:55:21;;;;;;;;;;;5.50;99.90;;;;;;6084199;23;20033;-83
2023/02/28 10:57:54;;;;;;;11.32;7.00;;;5.50;99.90;;;;;;6072658;22;19987;-84
2023/02/28 11:00:22;;;;;;;10.07;6.72;;;5.50;99.90;;;;;;6221793;22;20011;-84
2023/02/28 11:02:56;;;;;;;10.98;6.88;;;5.50;99.90;;;;;;6223118;22;20415;-84
2023/02/28 11:05:36;;;;;;;11.68;7.10;;;5.80;99.90;;;;;;6246116;22;20095;-84
2023/02/28 11:08:24;;;;;;;10.98;6.40;;;5.90;99.90;;;;;;6245240;22;20012;-83
2023/02/28 11:11:07;;;;;;;9.00;6.22;;;5.80;99.90;;;;;;6246523;22;20100;-83
2023/02/28 11:13:51;;;;;;;10.70;6.00;;;5.70;99.90;;;;;;6221247;22;20498;-84
2023/02/28 11:35:54;;;;;;;8.48;3.88;;;6.50;99.90;;;;;;5976930;24;20049;-83
2023/02/28 11:38:20;;;;;;;7.25;4.40;;;6.20;99.90;;;;;;5929734;24;20008;-83
2023/02/28 11:40:55;;;;;;;5.90;4.00;;;6.20;99.90;;;;;;5952004;24;20430;-83
2023/02/28 11:43:52;;;;;;;8.80;4.18;;;6.40;99.90;;;;;;5927797;24;20131;-86
2023/02/28 11:46:44;;;;;;;6.80;4.18;;;6.60;99.90;;;;;;5927787;24;20729;-83
2023/02/28 11:49:32;;;;;;;7.05;4.43;;;6.60;99.90;;;;;;5929781;24;20096;-86
2023/02/28 11:52:29;;;;;;;6.70;4.45;;;6.80;99.90;;;;;;5952569;24;20008;-83
2023/02/28 11:55:20;;;;;;;8.85;4.88;;;7.00;99.90;;;;;;5928438;24;20023;-86
2023/02/28 11:57:59;;;;;;;6.70;4.55;;;7.00;99.90;;;;;;5954410;24;20350;-84
2023/02/28 12:00:37;;;;;;;6.93;4.63;;;6.90;99.90;;;;;;6004599;23;20301;-85
2023/02/28 12:03:03;;;;;;;8.02;4.65;;;6.90;99.90;;;;;;6158754;23;20024;-85
2023/02/28 12:05:49;;;;;;;7.90;4.60;;;7.10;99.90;;;;;;6186705;23;20086;-83
2023/02/28 12:08:27;;;;;;;7.43;4.35;;;7.10;99.90;;;;;;6217092;23;20023;-84
2023/02/28 12:11:02;;;;;;;6.57;4.30;;;7.40;99.90;;;;;;6235468;23;20195;-83
2023/02/28 12:13:34;;;;;;;;;;;7.40;99.90;;;;;;6234566;23;20079;-82
2023/02/28 12:16:24;;;;;;;8.60;4.30;;;7.50;99.90;;;;;;6264211;22;19930;-84
2023/02/28 12:19:03;;;;;;;6.75;4.20;;;7.20;99.90;;;;;;6234320;22;20026;-85
2023/02/28 12:21:59;;;;;;;5.70;4.10;;;7.70;99.90;;;;;;6227340;22;20014;-84
2023/02/28 12:24:43;;;;;;;5.45;4.00;;;7.80;99.90;;;;;;6250342;22;20314;-83
2023/02/28 12:27:18;;;;;;;6.60;4.50;;;7.80;99.90;;;;;;6249807;22;20019;-86
2023/02/28 12:29:54;;;;;;;;;;;8.10;99.90;;;;;;6249776;22;20015;-86
2023/02/28 12:32:29;;;;;;;9.85;4.80;;;8.30;99.90;;;;;;6221113;22;19977;-87
2023/02/28 12:34:57;;;;;;;;;;;7.90;99.90;;;;;;6221223;22;20015;-84
2023/02/28 12:37:51;;;;;;;7.05;4.57;;;7.70;99.90;;;;;;6218710;22;19962;-87
2023/02/28 12:40:25;;;;;;;8.50;4.45;;;7.50;99.90;;;;;;6247014;22;20019;-86
2023/02/28 12:43:03;;;;;;;8.20;4.47;;;7.70;99.90;;;;;;6222172;22;20020;-83
2023/02/28 12:45:59;;;;;;;7.95;4.50;;;7.60;99.90;;;;;;6274416;22;20007;-83
2023/02/28 12:48:55;;;;;;;7.40;4.50;;;7.60;99.90;;;;;;6244111;22;20118;-83
2023/02/28 13:03:07;;;;;;;7.65;4.75;;;7.50;99.90;;;;;;5919127;24;20322;-83
2023/02/28 13:05:50;;;;;;;6.32;4.78;;;7.60;99.90;;;;;;5876565;24;20452;-83
2023/02/28 13:08:35;;;;;;;10.55;5.18;;;7.60;99.90;;;;;;5895579;24;20013;-84
2023/02/28 13:11:01;;;;;;;9.40;4.78;;;7.90;99.90;;;;;;5874134;24;20080;-83
2023/02/28 13:13:29;;;;;;;9.30;5.07;;;8.00;99.90;;;;;;5897545;23;20423;-84
2023/02/28 13:16:06;;;;;;;9.43;4.60;;;8.10;99.90;;;;;;5897766;24;20013;-82
2023/02/28 13:18:58;;;;;;;7.70;4.95;;;8.40;99.90;;;;;;5896476;24;20025;-83
2023/02/28 13:25:41;;;;;;;6.30;4.65;;;8.50;99.90;;;;;;5870179;24;20374;-84
2023/02/28 13:35:45;;;;;;;8.00;4.63;;;8.60;99.90;;;;;;5923704;24;20055;-85
2023/02/28 13:38:45;;;;;;;8.63;4.78;;;8.50;99.90;;;;;;5921832;24;20013;-85
2023/02/28 13:41:30;;;;;;;7.22;5.07;;;8.40;99.90;;;;;;5842378;24;20014;-85
2023/02/28 13:44:26;;;;;;;8.82;5.22;;;8.40;99.90;;;;;;5843878;24;20013;-84
2023/02/28 13:46:55;;;;;;;7.72;4.70;;;8.30;99.90;;;;;;5866177;24;20340;-83
2023/02/28 13:49:33;;;;;;;7.25;4.82;;;8.30;99.90;;;;;;5841422;24;20014;-83
2023/02/28 13:52:19;;;;;;;6.80;4.68;;;8.30;99.90;;;;;;5841531;24;20109;-83
2023/02/28 13:55:13;;;;;;;7.45;4.85;;;8.30;99.90;;;;;;5866802;24;20435;-82
2023/02/28 13:57:54;;;;;;;8.38;5.20;;;8.10;99.90;;;;;;5844028;24;20010;-82
2023/02/28 14:00:41;;;;;;;8.65;5.82;;;8.10;99.90;;;;;;5850922;24;20014;-85
2023/02/28 14:03:29;;;;;;;8.52;5.28;;;7.70;99.90;;;;;;5948435;24;20049;-83
2023/02/28 14:10:05;;;;;;;7.60;5.20;;;8.00;99.90;;;;;;5943252;24;20025;-87
2023/02/28 14:12:49;;;;;;;7.78;5.18;;;7.50;99.90;;;;;;5924297;24;20056;-85
2023/02/28 14:15:30;;;;;;;8.57;4.85;;;7.50;99.90;;;;;;5923285;24;20440;-83
2023/02/28 14:22:09;;;;;;;8.18;5.30;;;7.40;99.90;;;;;;5974627;23;20016;-85
2023/02/28 14:25:44;;;;;;;;;;;;;;;;;;;;;
2023/02/28 14:28:43;;;;;;;8.55;5.60;;;7.30;99.90;;;;;;5869443;24;20036;-83
2023/02/28 14:32:11;;;;;;;10.80;5.85;;;7.30;99.90;;;;;;5851246;24;20014;-85
2023/02/28 14:34:43;;;;;;;10.60;5.63;;;7.10;99.90;;;;;;5856523;24;20614;-86
2023/02/28 14:37:16;;;;;;;8.40;5.60;;;7.00;99.90;;;;;;5851186;24;20006;-84
2023/02/28 14:40:32;;;;;;;8.15;5.70;;;7.10;99.90;;;;;;5889995;24;19998;-87
2023/02/28 14:43:04;;;;;;;9.68;5.88;;;7.10;99.90;;;;;;5856194;24;20010;-86
2023/02/28 14:52:40;;;;;;;7.35;5.63;;;7.10;99.90;;;;;;5895850;24;20066;-85
2023/02/28 14:55:17;;;;;;;8.52;5.80;;;7.20;99.90;;;;;;5873789;24;20022;-87
2023/02/28 14:58:20;;;;;;;11.15;6.13;;;7.20;99.90;;;;;;5902341;23;20025;-88
2023/02/28 15:08:57;;;;;;;8.77;5.43;;;7.20;99.90;;;;;;6032648;23;20022;-83
2023/02/28 15:11:53;;;;;;;8.65;5.90;;;7.40;99.90;;;;;;5920248;24;20043;-85
2023/02/28 15:14:41;;;;;;;11.68;6.25;;;7.50;99.90;;;;;;5838881;24;20058;-86
2023/02/28 15:17:42;;;;;;;9.65;6.18;;;7.40;99.90;;;;;;5819562;24;20058;-84
2023/02/28 15:20:27;;;;;;;9.15;6.55;;;7.30;99.90;;;;;;5821024;24;20054;-83
2023/02/28 15:23:02;;;;;;;9.10;6.72;;;7.30;99.90;;;;;;5819084;24;20508;-83
2023/02/28 15:25:40;;;;;;;11.75;7.03;;;7.50;99.90;;;;;;5898867;24;20100;-88
2023/02/28 15:28:19;;;;;;;10.95;6.47;;;7.60;99.90;;;;;;5939548;23;20027;-84
2023/02/28 15:31:00;;;;;;;8.38;6.47;;;7.50;99.90;;;;;;5976772;24;20391;-86
2023/02/28 15:33:28;;;;;;;12.10;7.15;;;7.40;99.90;;;;;;5952330;24;20472;-82
2023/02/28 15:36:06;;;;;;;12.23;6.82;;;7.30;99.90;;;;;;5952862;24;20032;-83
2023/02/28 15:38:35;;;;;;;9.02;6.45;;;7.40;99.90;;;;;;5953863;24;20548;-83
2023/02/28 15:41:01;;;;;;;9.40;6.75;;;7.40;99.90;;;;;;5956691;23;20016;-85
2023/02/28 15:43:32;;;;;;;10.88;7.00;;;7.40;99.90;;;;;;6069667;23;20056;-82
2023/02/28 15:46:07;;;;;;;10.07;6.20;;;7.50;99.90;;;;;;6115784;23;20036;-81
2023/02/28 15:48:54;;;;;;;8.18;5.65;;;7.40;99.90;;;;;;6124130;23;20017;-81
2023/02/28 15:51:29;;;;;;;9.50;4.75;;;7.50;99.90;;;;;;6212997;22;20108;-83
2023/02/28 15:54:12;;;;;;;12.13;5.00;;;7.60;99.90;;;;;;6245560;22;20058;-83
2023/02/28 15:56:52;;;;;;;8.18;4.43;;;7.60;99.90;;;;;;6244931;22;20349;-84
2023/02/28 15:59:22;;;;;;;9.88;5.35;;;7.70;99.90;;;;;;6222730;22;20008;-83
2023/02/28 16:02:21;;;;;;;9.18;6.10;;;7.90;99.90;;;;;;6247902;22;20165;-81
2023/02/28 16:05:01;;;;;;;8.63;5.97;;;8.00;99.90;;;;;;6222126;22;20016;-85
2023/02/28 16:07:28;;;;;;;7.80;5.47;;;8.10;99.90;;;;;;6220209;22;20109;-82
2023/02/28 16:09:54;;;;;;;8.88;5.72;;;8.20;99.90;;;;;;6273853;22;20115;-82
2023/02/28 16:12:24;;;;;;;8.35;5.50;;;8.10;99.90;;;;;;6220004;22;20019;-86
2023/02/28 16:14:54;;;;;;;9.38;5.47;;;8.30;99.90;;;;;;6246967;22;20051;-82
2023/02/28 16:17:43;;;;;;;8.50;5.72;;;8.30;99.90;;;;;;6216548;23;20051;-84
2023/02/28 16:20:25;;;;;;;10.40;5.90;;;8.00;99.90;;;;;;6219090;23;20078;-84
2023/02/28 16:22:50;;;;;;;10.05;6.95;;;7.70;99.90;;;;;;6238639;23;20016;-84
2023/02/28 16:25:33;;;;;;;8.23;5.93;;;7.40;99.90;;;;;;6212974;23;20094;-83
2023/02/28 16:28:00;;;;;;;16.80;6.55;;;7.70;99.90;;;;;;6212391;23;20022;-85
2023/02/28 16:30:31;;;;;;;9.07;6.43;;;7.30;99.90;;;;;;6213793;23;20020;-84
2023/02/28 16:32:59;;;;;;;9.45;7.07;;;7.40;99.90;;;;;;6212537;23;20012;-84
2023/02/28 16:35:37;;;;;;;10.80;8.15;;;7.50;99.90;;;;;;6214923;23;20023;-82
2023/02/28 16:38:03;;;;;;;12.60;7.20;;;7.30;99.90;;;;;;6213917;23;20019;-85
2023/02/28 16:40:34;;;;;;;9.32;7.07;;;7.20;99.90;;;;;;6238576;23;20016;-82
2023/02/28 16:43:03;;;;;;;10.80;6.32;;;6.70;99.90;;;;;;6236578;23;20300;-80
2023/02/28 16:45:29;;;;;;;9.60;6.90;;;6.40;99.90;;;;;;6238864;23;20048;-83
2023/02/28 16:47:55;;;;;;;11.13;7.35;;;6.30;99.90;;;;;;6215312;23;20078;-84
2023/02/28 16:50:27;;;;;;;13.32;6.97;;;6.00;99.90;;;;;;6212306;23;20102;-83
2023/02/28 16:52:54;;;;;;;10.25;7.00;;;5.80;99.90;;;;;;6214162;23;20063;-82
2023/02/28 16:55:21;;;;;;;9.73;6.18;;;5.60;99.90;;;;;;6215095;23;20019;-84
2023/02/28 16:57:51;;;;;;;14.38;7.30;;;5.40;99.90;;;;;;6241116;22;20064;-80
2023/02/28 17:00:17;;;;;;;10.65;6.45;;;5.40;99.90;;;;;;6240395;22;20012;-82
2023/02/28 17:02:43;;;;;;;11.48;6.53;;;5.30;99.90;;;;;;6219524;23;20405;-81
2023/02/28 17:05:11;;;;;;;10.90;6.85;;;5.20;99.90;;;;;;6239184;23;20012;-84
2023/02/28 17:07:38;;;;;;;12.23;7.25;;;5.10;99.90;;;;;;6212710;23;20466;-83
2023/02/28 17:10:16;;;;;;;11.77;7.07;;;5.00;99.90;;;;;;6238956;23;20012;-84
2023/02/28 17:12:42;;;;;;;9.77;6.90;;;4.80;99.90;;;;;;6237107;23;20131;-85
2023/02/28 17:15:10;;;;;;;10.65;7.43;;;4.80;99.90;;;;;;6237570;23;20013;-81
2023/02/28 17:18:18;;;;;;;15.90;11.35;;;4.80;99.90;;;;;;6241440;22;20027;-82
2023/02/28 17:20:45;;;;;;;15.43;9.23;;;4.80;99.90;;;;;;6189232;23;20056;-82
2023/02/28 17:23:11;;;;;;;14.70;7.88;;;4.70;99.90;;;;;;6187333;23;20066;-82
2023/02/28 17:25:36;;;;;;;12.10;8.07;;;4.70;99.90;;;;;;6241133;23;20046;-83
2023/02/28 17:28:05;;;;;;;11.32;8.18;;;4.60;99.90;;;;;;6213251;23;20043;-83
2023/02/28 17:31:05;;;;;;;12.55;7.70;;;4.40;99.90;;;;;;6190860;23;20023;-82
2023/02/28 17:34:21;;;;;;;13.55;7.65;;;4.40;99.90;;;;;;6118852;23;20077;-84
2023/02/28 17:36:51;;;;;;;;;;;4.40;99.90;;;;;;5983230;23;20016;-84
2023/02/28 17:39:49;;;;;;;13.65;7.55;;;4.20;99.90;;;;;;5959158;23;19985;-82
2023/02/28 17:43:24;;;;;;;13.43;8.13;;;4.20;99.90;;;;;;5912244;23;20099;-85
2023/02/28 17:45:56;;;;;;;10.50;7.93;;;4.10;99.90;;;;;;5981787;23;20023;-82
2023/02/28 17:51:43;;;;;;;14.02;8.30;;;4.00;99.90;;;;;;5979916;23;20031;-82
2023/02/28 17:55:34;;;;;;;15.27;8.80;;;3.90;99.90;;;;;;5997472;23;20023;-82
2023/02/28 18:19:21;;;;;;;15.77;10.60;;;3.80;99.90;;;;;;6302346;22;1387664;-81
2023/02/28 18:22:25;;;;;;;16.20;10.68;;;3.90;99.90;;;;;;6231746;22;20015;-81
2023/02/28 18:24:56;;;;;;;20.95;12.05;;;3.70;99.90;;;;;;6228815;22;20065;-82
2023/02/28 18:27:38;;;;;;;17.70;11.07;;;3.60;99.90;;;;;;6228508;22;20019;-81
2023/02/28 18:30:30;;;;;;;18.35;10.80;;;3.80;99.90;;;;;;6228736;22;20007;-83
2023/02/28 18:33:27;;;;;;;20.00;11.23;;;3.50;99.90;;;;;;6226172;22;20008;-83
2023/02/28 18:36:18;;;;;;;;;;;3.50;99.90;;;;;;6230941;22;20434;-83
2023/02/28 18:39:14;;;;;;;18.48;11.98;;;3.30;99.90;;;;;;6191922;23;19911;-83
2023/02/28 18:46:03;;;;;;;21.52;12.38;;;3.50;99.90;;;;;;6153331;23;20065;-82
2023/02/28 18:51:54;;;;;;;19.27;12.60;;;3.20;99.90;;;;;;6011580;23;20107;-81
2023/02/28 18:55:07;;;;;;;20.52;11.90;;;3.50;99.90;;;;;;5984924;23;20031;-84
2023/02/28 19:02:45;;;;;;;;;;;;;;;;;;;;;
2023/02/28 19:05:41;;;;;;;18.60;12.13;;;3.30;99.90;;;;;;5919363;24;20162;-83
2023/02/28 19:08:33;;;;;;;23.23;13.30;;;3.50;99.90;;;;;;5889544;24;20528;-83
2023/02/28 19:11:57;;;;;;;;;;;;;;;;;;;;;
2023/02/28 19:14:57;;;;;;;;;;;;;;;;;;;;;
2023/02/28 19:17:47;;;;;;;23.52;14.10;;;3.00;99.90;;;;;;5895007;24;20222;-83
2023/02/28 19:21:22;;;;;;;;;;;;;;;;;;;;;
2023/02/28 19:24:49;;;;;;;22.90;12.60;;;3.00;99.90;;;;;;5935168;24;20436;-82
2023/02/28 19:30:39;;;;;;;21.27;12.15;;;3.00;99.90;;;;;;5926583;24;19981;-83
2023/02/28 19:36:56;;;;;;;16.80;11.82;;;3.00;99.90;;;;;;5786415;24;20031;-87
2023/02/28 19:39:22;;;;;;;16.38;11.82;;;3.20;99.90;;;;;;5765931;24;20188;-87
2023/02/28 19:41:53;;;;;;;17.88;11.18;;;2.90;99.90;;;;;;5766466;24;20022;-84
2023/02/28 19:44:21;;;;;;;17.33;11.70;;;3.00;99.90;;;;;;5790571;24;20015;-81
2023/02/28 19:47:11;;;;;;;19.10;11.35;;;3.00;99.90;;;;;;5766676;24;20406;-85
2023/02/28 19:49:36;;;;;;;17.90;11.68;;;2.80;99.90;;;;;;5716572;24;20115;-84
2023/02/28 19:52:08;;;;;;;18.77;11.70;;;2.70;99.90;;;;;;5716342;24;20461;-87
2023/02/28 19:54:36;;;;;;;18.25;11.82;;;2.80;99.90;;;;;;5717952;24;20527;-85
2023/02/28 19:57:35;;;;;;;22.45;11.90;;;2.90;99.90;;;;;;5736128;24;20027;-85
2023/02/28 20:00:14;;;;;;;19.38;11.82;;;2.60;99.90;;;;;;5737528;24;20385;-86
2023/02/28 20:03:07;;;;;;;19.08;11.50;;;2.40;99.90;;;;;;5799630;24;20014;-84
2023/02/28 20:05:36;;;;;;;15.55;11.55;;;2.40;99.90;;;;;;5844527;24;20025;-89
2023/02/28 20:08:05;;;;;;;25.60;11.95;;;2.90;99.90;;;;;;5864869;24;20022;-86
2023/02/28 20:10:39;;;;;;;16.67;11.57;;;2.30;99.90;;;;;;5844816;24;20010;-85
2023/02/28 20:13:05;;;;;;;17.87;10.93;;;2.60;99.90;;;;;;5945904;23;20014;-85
2023/02/28 20:16:29;;;;;;;18.40;11.45;;;2.60;99.90;;;;;;6032479;23;20107;-86
2023/02/28 20:23:59;;;;;;;16.75;10.95;;;2.20;99.90;;;;;;6004712;23;20155;-84
2023/02/28 20:30:25;;;;;;;;;;;;;;;;;;;;;
2023/02/28 20:51:32;;;;;;;16.25;10.32;;;2.30;99.90;;;;;;6088901;23;20404;-85
2023/02/28 20:53:58;;;;;;;18.80;11.35;;;1.80;99.90;;;;;;6087304;23;20047;-84
2023/02/28 20:56:24;;;;;;;16.52;10.35;;;2.10;99.90;;;;;;6167722;23;20016;-87
2023/02/28 22:35:03;;;;;;;35.33;21.85;;;1.20;99.90;;;;;;6250469;22;1517099;-84
2023/02/28 22:37:31;;;;;;;29.77;18.60;;;0.80;99.90;;;;;;6260466;22;20019;-85
2023/02/28 22:39:57;;;;;;;21.30;14.45;;;1.20;99.90;;;;;;6286954;22;20019;-84
2023/02/28 22:42:23;;;;;;;23.25;14.35;;;1.00;99.90;;;;;;6260226;22;20407;-85
2023/02/28 22:44:52;;;;;;;22.23;14.27;;;0.50;99.90;;;;;;6286051;22;20007;-83
2023/02/28 22:47:18;;;;;;;21.92;15.35;;;0.50;99.90;;;;;;6259355;22;20029;-83
2023/02/28 22:49:43;;;;;;;29.48;16.10;;;0.60;99.90;;;;;;6266423;22;20090;-82
2023/02/28 22:52:09;;;;;;;26.77;16.90;;;1.00;99.90;;;;;;6265998;22;20015;-85
2023/02/28 22:54:37;;;;;;;22.67;15.23;;;0.30;99.90;;;;;;6262660;22;20455;-83
2023/02/28 22:57:04;;;;;;;22.77;15.15;;;0.20;99.90;;;;;;6261061;22;20089;-83
2023/02/28 22:59:35;;;;;;;29.85;18.80;;;0.80;99.90;;;;;;6261918;22;20112;-84
2023/02/28 23:02:01;;;;;;;38.90;21.65;;;0.10;99.90;;;;;;6261660;22;20037;-85
2023/02/28 23:04:45;;;;;;;40.83;23.13;;;0.30;99.90;;;;;;6261620;22;20052;-83
2023/02/28 23:07:15;;;;;;;31.67;19.10;;;0.70;99.90;;;;;;6260361;22;20011;-85
2023/02/28 23:09:41;;;;;;;28.48;16.23;;;0.30;99.90;;;;;;6287172;22;20234;-84
2023/02/28 23:12:07;;;;;;;28.65;16.70;;;0.10;99.90;;;;;;6284895;22;20007;-85
2023/02/28 23:14:33;;;;;;;27.73;17.30;;;0.00;99.90;;;;;;6261201;22;20022;-84
2023/02/28 23:16:58;;;;;;;24.08;15.68;;;0.20;99.90;;;;;;6259349;22;20066;-83
2023/02/28 23:19:30;;;;;;;27.92;16.08;;;0.00;99.90;;;;;;6285017;22;20437;-84
2023/02/28 23:21:58;;;;;;;29.02;17.10;;;0.10;99.90;;;;;;6260886;22;20034;-83
2023/02/28 23:24:26;;;;;;;25.38;15.75;;;0.40;99.90;;;;;;6260675;22;20488;-84
2023/02/28 23:26:55;;;;;;;26.38;14.82;;;0.00;99.90;;;;;;6258713;22;20328;-82
2023/02/28 23:29:22;;;;;;;21.90;14.63;;;0.40;99.90;;;;;;6259216;22;20050;-84
2023/02/28 23:31:49;;;;;;;22.10;15.00;;;0.10;99.90;;;;;;6260004;22;20015;-83
2023/02/28 23:34:17;;;;;;;23.95;15.10;;;0.20;99.90;;;;;;6258027;22;20090;-83
2023/02/28 23:36:44;;;;;;;21.35;13.88;;;-0.40;99.90;;;;;;6252854;22;20049;-84
2023/02/28 23:39:15;;;;;;;21.52;13.63;;;0.20;99.90;;;;;;6252439;22;20015;-84
2023/02/28 23:41:41;;;;;;;23.50;14.88;;;0.00;99.90;;;;;;6251661;22;20015;-83
2023/02/28 23:44:15;;;;;;;23.15;16.00;;;-0.20;99.90;;;;;;6277640;22;20485;-83
2023/02/28 23:46:45;;;;;;;27.13;15.98;;;0.10;99.90;;;;;;6254529;22;20011;-85
2023/02/28 23:49:11;;;;;;;21.80;14.93;;;0.10;99.90;;;;;;6252842;22;20388;-84
2023/02/28 23:51:45;;;;;;;21.80;14.15;;;-0.30;99.90;;;;;;6252718;22;20015;-83
2023/02/28 23:54:18;;;;;;;22.27;15.20;;;-0.60;99.90;;;;;;6253825;22;20021;-84
2023/02/28 23:56:43;;;;;;;21.17;14.27;;;-0.60;99.90;;;;;;6252547;22;20083;-82
2023/02/28 23:59:10;;;;;;;20.52;13.63;;;-0.70;99.90;;;;;;6278390;22;20583;-83
